sensor_id;sensor_type;location;lat;lon;timestamp;temperature;humidity
65584;DHT22;70321;43.592;1.456;2023-06-19T00:01:59;22.85;84.38
65584;DHT22;70321;43.592;1.456;2023-06-19T00:04:24;22.84;84.39
65584;DHT22;70321;43.592;1.456;2023-06-19T00:06:52;22.83;84.51
65584;DHT22;70321;43.592;1.456;2023-06-19T00:09:18;22.87;84.45
65584;DHT22;70321;43.592;1.456;2023-06-19T00:11:43;22.81;84.47
65584;DHT22;70321;43.592;1.456;2023-06-19T00:14:08;22.81;84.49
65584;DHT22;70321;43.592;1.456;2023-06-19T00:16:34;22.78;84.73
65584;DHT22;70321;43.592;1.456;2023-06-19T00:18:59;22.77;84.86
65584;DHT22;70321;43.592;1.456;2023-06-19T00:21:25;22.71;84.86
65584;DHT22;70321;43.592;1.456;2023-06-19T00:23:52;22.65;85.06
65584;DHT22;70321;43.592;1.456;2023-06-19T00:26:17;22.57;85.24
65584;DHT22;70321;43.592;1.456;2023-06-19T00:28:43;22.44;84.89
65584;DHT22;70321;43.592;1.456;2023-06-19T00:31:11;22.27;84.64
65584;DHT22;70321;43.592;1.456;2023-06-19T00:33:39;22.23;84.80
65584;DHT22;70321;43.592;1.456;2023-06-19T00:36:11;22.21;84.62
65584;DHT22;70321;43.592;1.456;2023-06-19T00:38:38;22.16;84.10
65584;DHT22;70321;43.592;1.456;2023-06-19T00:41:04;22.12;83.66
65584;DHT22;70321;43.592;1.456;2023-06-19T00:43:30;22.06;83.76
65584;DHT22;70321;43.592;1.456;2023-06-19T00:45:58;22.02;83.51
65584;DHT22;70321;43.592;1.456;2023-06-19T00:48:24;21.96;83.81
65584;DHT22;70321;43.592;1.456;2023-06-19T00:50:51;21.89;83.64
65584;DHT22;70321;43.592;1.456;2023-06-19T00:53:17;21.90;83.84
65584;DHT22;70321;43.592;1.456;2023-06-19T00:55:45;21.90;83.65
65584;DHT22;70321;43.592;1.456;2023-06-19T00:58:11;21.89;83.49
65584;DHT22;70321;43.592;1.456;2023-06-19T01:00:37;21.80;83.37
65584;DHT22;70321;43.592;1.456;2023-06-19T01:03:02;21.75;83.67
65584;DHT22;70321;43.592;1.456;2023-06-19T01:05:29;21.66;83.91
65584;DHT22;70321;43.592;1.456;2023-06-19T01:08:12;21.58;84.05
65584;DHT22;70321;43.592;1.456;2023-06-19T01:10:52;21.49;84.41
65584;DHT22;70321;43.592;1.456;2023-06-19T01:15:54;21.36;85.44
65584;DHT22;70321;43.592;1.456;2023-06-19T01:18:21;21.36;85.16
65584;DHT22;70321;43.592;1.456;2023-06-19T01:20:49;21.38;84.91
65584;DHT22;70321;43.592;1.456;2023-06-19T01:23:14;21.34;84.80
65584;DHT22;70321;43.592;1.456;2023-06-19T01:25:40;21.31;85.13
65584;DHT22;70321;43.592;1.456;2023-06-19T01:28:08;21.29;85.10
65584;DHT22;70321;43.592;1.456;2023-06-19T01:30:36;21.21;85.60
65584;DHT22;70321;43.592;1.456;2023-06-19T01:35:38;21.11;85.28
65584;DHT22;70321;43.592;1.456;2023-06-19T01:38:06;21.08;85.30
65584;DHT22;70321;43.592;1.456;2023-06-19T01:40:32;21.02;85.63
65584;DHT22;70321;43.592;1.456;2023-06-19T01:43:01;21.05;85.42
65584;DHT22;70321;43.592;1.456;2023-06-19T01:45:28;21.02;84.94
65584;DHT22;70321;43.592;1.456;2023-06-19T01:47:54;20.99;85.04
65584;DHT22;70321;43.592;1.456;2023-06-19T01:50:21;20.96;84.94
65584;DHT22;70321;43.592;1.456;2023-06-19T01:52:47;20.96;85.37
65584;DHT22;70321;43.592;1.456;2023-06-19T01:55:13;20.96;85.00
65584;DHT22;70321;43.592;1.456;2023-06-19T01:57:39;20.92;84.65
65584;DHT22;70321;43.592;1.456;2023-06-19T02:00:05;20.90;84.57
65584;DHT22;70321;43.592;1.456;2023-06-19T02:02:33;20.90;84.36
65584;DHT22;70321;43.592;1.456;2023-06-19T02:04:58;20.81;84.68
65584;DHT22;70321;43.592;1.456;2023-06-19T02:07:24;20.81;85.03
65584;DHT22;70321;43.592;1.456;2023-06-19T02:09:49;20.78;84.98
65584;DHT22;70321;43.592;1.456;2023-06-19T02:12:14;20.77;85.38
65584;DHT22;70321;43.592;1.456;2023-06-19T02:14:40;20.74;84.81
65584;DHT22;70321;43.592;1.456;2023-06-19T02:17:05;20.74;85.00
65584;DHT22;70321;43.592;1.456;2023-06-19T02:19:31;20.73;85.04
65584;DHT22;70321;43.592;1.456;2023-06-19T02:21:56;20.74;84.81
65584;DHT22;70321;43.592;1.456;2023-06-19T02:24:22;20.75;84.78
65584;DHT22;70321;43.592;1.456;2023-06-19T02:26:47;20.81;84.89
65584;DHT22;70321;43.592;1.456;2023-06-19T02:29:13;20.83;84.84
65584;DHT22;70321;43.592;1.456;2023-06-19T02:31:38;20.85;84.92
65584;DHT22;70321;43.592;1.456;2023-06-19T02:34:04;20.87;84.85
65584;DHT22;70321;43.592;1.456;2023-06-19T02:36:29;20.87;84.84
65584;DHT22;70321;43.592;1.456;2023-06-19T02:38:55;20.90;85.00
65584;DHT22;70321;43.592;1.456;2023-06-19T02:41:21;21.01;85.00
65584;DHT22;70321;43.592;1.456;2023-06-19T02:43:46;21.04;85.19
65584;DHT22;70321;43.592;1.456;2023-06-19T02:46:12;21.09;85.17
65584;DHT22;70321;43.592;1.456;2023-06-19T02:48:37;21.14;84.98
65584;DHT22;70321;43.592;1.456;2023-06-19T02:51:03;21.18;84.85
65584;DHT22;70321;43.592;1.456;2023-06-19T02:53:28;21.21;84.79
65584;DHT22;70321;43.592;1.456;2023-06-19T02:55:54;21.24;84.89
65584;DHT22;70321;43.592;1.456;2023-06-19T02:58:19;21.22;84.74
65584;DHT22;70321;43.592;1.456;2023-06-19T03:00:46;21.22;84.97
65584;DHT22;70321;43.592;1.456;2023-06-19T03:03:11;21.25;85.12
65584;DHT22;70321;43.592;1.456;2023-06-19T03:05:37;21.24;84.66
65584;DHT22;70321;43.592;1.456;2023-06-19T03:08:03;21.15;84.49
65584;DHT22;70321;43.592;1.456;2023-06-19T03:10:29;21.06;83.98
65584;DHT22;70321;43.592;1.456;2023-06-19T03:12:54;20.99;84.22
65584;DHT22;70321;43.592;1.456;2023-06-19T03:15:19;20.99;84.38
65584;DHT22;70321;43.592;1.456;2023-06-19T03:17:45;20.98;84.56
65584;DHT22;70321;43.592;1.456;2023-06-19T03:20:10;20.98;84.71
65584;DHT22;70321;43.592;1.456;2023-06-19T03:22:40;20.95;84.53
65584;DHT22;70321;43.592;1.456;2023-06-19T03:25:06;20.87;84.60
65584;DHT22;70321;43.592;1.456;2023-06-19T03:27:31;20.83;84.89
65584;DHT22;70321;43.592;1.456;2023-06-19T03:30:00;20.83;85.15
65584;DHT22;70321;43.592;1.456;2023-06-19T03:32:26;20.78;85.23
65584;DHT22;70321;43.592;1.456;2023-06-19T03:34:51;20.70;84.63
65584;DHT22;70321;43.592;1.456;2023-06-19T03:37:17;20.65;85.08
65584;DHT22;70321;43.592;1.456;2023-06-19T03:39:42;20.70;85.36
65584;DHT22;70321;43.592;1.456;2023-06-19T03:42:08;20.74;85.28
65584;DHT22;70321;43.592;1.456;2023-06-19T03:44:33;20.78;85.29
65584;DHT22;70321;43.592;1.456;2023-06-19T03:46:59;20.80;85.15
65584;DHT22;70321;43.592;1.456;2023-06-19T03:49:24;20.85;85.18
65584;DHT22;70321;43.592;1.456;2023-06-19T03:51:50;20.88;85.05
65584;DHT22;70321;43.592;1.456;2023-06-19T03:54:15;20.92;85.07
65584;DHT22;70321;43.592;1.456;2023-06-19T03:56:41;20.92;84.91
65584;DHT22;70321;43.592;1.456;2023-06-19T03:59:06;20.94;84.78
65584;DHT22;70321;43.592;1.456;2023-06-19T04:01:32;20.94;84.76
65584;DHT22;70321;43.592;1.456;2023-06-19T04:03:57;20.94;84.68
65584;DHT22;70321;43.592;1.456;2023-06-19T04:06:23;20.92;84.65
65584;DHT22;70321;43.592;1.456;2023-06-19T04:08:48;20.92;84.68
65584;DHT22;70321;43.592;1.456;2023-06-19T04:11:13;20.90;84.51
65584;DHT22;70321;43.592;1.456;2023-06-19T04:13:39;20.91;84.45
65584;DHT22;70321;43.592;1.456;2023-06-19T04:16:04;20.92;84.49
65584;DHT22;70321;43.592;1.456;2023-06-19T04:18:30;20.87;84.23
65584;DHT22;70321;43.592;1.456;2023-06-19T04:20:55;20.88;84.20
65584;DHT22;70321;43.592;1.456;2023-06-19T04:23:21;20.88;84.43
65584;DHT22;70321;43.592;1.456;2023-06-19T04:25:46;20.95;84.63
65584;DHT22;70321;43.592;1.456;2023-06-19T04:28:11;20.99;84.57
65584;DHT22;70321;43.592;1.456;2023-06-19T04:30:37;21.01;84.51
65584;DHT22;70321;43.592;1.456;2023-06-19T04:33:04;21.04;84.35
65584;DHT22;70321;43.592;1.456;2023-06-19T04:35:31;21.02;84.26
65584;DHT22;70321;43.592;1.456;2023-06-19T04:37:57;20.99;84.12
65584;DHT22;70321;43.592;1.456;2023-06-19T04:40:26;20.99;84.03
65584;DHT22;70321;43.592;1.456;2023-06-19T04:42:51;20.96;84.07
65584;DHT22;70321;43.592;1.456;2023-06-19T04:45:19;20.92;84.14
65584;DHT22;70321;43.592;1.456;2023-06-19T04:47:44;20.87;84.07
65584;DHT22;70321;43.592;1.456;2023-06-19T04:50:10;20.88;84.27
65584;DHT22;70321;43.592;1.456;2023-06-19T04:52:35;20.87;84.22
65584;DHT22;70321;43.592;1.456;2023-06-19T04:55:01;20.85;84.15
65584;DHT22;70321;43.592;1.456;2023-06-19T04:57:26;20.81;84.27
65584;DHT22;70321;43.592;1.456;2023-06-19T04:59:51;20.83;84.27
65584;DHT22;70321;43.592;1.456;2023-06-19T05:02:17;20.81;84.16
65584;DHT22;70321;43.592;1.456;2023-06-19T05:04:42;20.85;84.26
65584;DHT22;70321;43.592;1.456;2023-06-19T05:07:09;20.90;85.11
65584;DHT22;70321;43.592;1.456;2023-06-19T05:09:36;20.95;85.88
65584;DHT22;70321;43.592;1.456;2023-06-19T05:12:01;20.99;85.88
65584;DHT22;70321;43.592;1.456;2023-06-19T05:14:26;21.04;85.47
65584;DHT22;70321;43.592;1.456;2023-06-19T05:16:53;21.05;85.23
65584;DHT22;70321;43.592;1.456;2023-06-19T05:19:18;21.09;85.24
65584;DHT22;70321;43.592;1.456;2023-06-19T05:21:43;21.09;85.27
65584;DHT22;70321;43.592;1.456;2023-06-19T05:24:09;21.11;85.11
65584;DHT22;70321;43.592;1.456;2023-06-19T05:26:34;21.16;85.06
65584;DHT22;70321;43.592;1.456;2023-06-19T05:29:00;21.19;85.00
65584;DHT22;70321;43.592;1.456;2023-06-19T05:31:25;21.21;84.92
65584;DHT22;70321;43.592;1.456;2023-06-19T05:33:51;21.22;84.98
65584;DHT22;70321;43.592;1.456;2023-06-19T05:36:16;21.26;85.66
65584;DHT22;70321;43.592;1.456;2023-06-19T05:38:42;21.34;86.69
65584;DHT22;70321;43.592;1.456;2023-06-19T05:41:08;21.36;86.92
65584;DHT22;70321;43.592;1.456;2023-06-19T05:43:33;21.35;86.08
65584;DHT22;70321;43.592;1.456;2023-06-19T05:45:59;21.32;84.95
65584;DHT22;70321;43.592;1.456;2023-06-19T05:48:25;21.34;85.01
65584;DHT22;70321;43.592;1.456;2023-06-19T05:50:51;21.34;83.76
65584;DHT22;70321;43.592;1.456;2023-06-19T05:53:16;21.32;83.74
65584;DHT22;70321;43.592;1.456;2023-06-19T05:55:42;21.28;83.91
65584;DHT22;70321;43.592;1.456;2023-06-19T05:58:08;21.26;83.70
65584;DHT22;70321;43.592;1.456;2023-06-19T06:00:33;21.31;83.67
65584;DHT22;70321;43.592;1.456;2023-06-19T06:02:59;21.32;83.46
65584;DHT22;70321;43.592;1.456;2023-06-19T06:05:27;21.38;83.73
65584;DHT22;70321;43.592;1.456;2023-06-19T06:07:54;21.42;83.59
65584;DHT22;70321;43.592;1.456;2023-06-19T06:10:21;21.43;83.23
65584;DHT22;70321;43.592;1.456;2023-06-19T06:12:48;21.41;83.46
65584;DHT22;70321;43.592;1.456;2023-06-19T06:15:13;21.45;83.49
65584;DHT22;70321;43.592;1.456;2023-06-19T06:17:39;21.49;83.58
65584;DHT22;70321;43.592;1.456;2023-06-19T06:20:04;21.46;83.37
65584;DHT22;70321;43.592;1.456;2023-06-19T06:22:41;21.45;83.23
65584;DHT22;70321;43.592;1.456;2023-06-19T06:25:07;21.48;83.67
65584;DHT22;70321;43.592;1.456;2023-06-19T06:27:33;21.56;83.49
65584;DHT22;70321;43.592;1.456;2023-06-19T06:29:58;21.60;83.51
65584;DHT22;70321;43.592;1.456;2023-06-19T06:32:24;21.65;83.33
65584;DHT22;70321;43.592;1.456;2023-06-19T06:34:49;21.69;83.41
65584;DHT22;70321;43.592;1.456;2023-06-19T06:37:15;21.69;82.97
65584;DHT22;70321;43.592;1.456;2023-06-19T06:39:42;21.67;82.92
65584;DHT22;70321;43.592;1.456;2023-06-19T06:42:08;21.75;83.07
65584;DHT22;70321;43.592;1.456;2023-06-19T06:44:33;21.78;82.92
65584;DHT22;70321;43.592;1.456;2023-06-19T06:46:58;21.78;82.79
65584;DHT22;70321;43.592;1.456;2023-06-19T06:49:24;21.75;82.59
65584;DHT22;70321;43.592;1.456;2023-06-19T06:51:49;21.72;82.84
65584;DHT22;70321;43.592;1.456;2023-06-19T06:54:15;21.82;82.99
65584;DHT22;70321;43.592;1.456;2023-06-19T06:56:40;21.85;83.00
65584;DHT22;70321;43.592;1.456;2023-06-19T06:59:06;21.85;82.96
65584;DHT22;70321;43.592;1.456;2023-06-19T07:01:31;21.85;83.05
65584;DHT22;70321;43.592;1.456;2023-06-19T07:03:57;21.85;83.16
65584;DHT22;70321;43.592;1.456;2023-06-19T07:06:22;21.86;83.30
65584;DHT22;70321;43.592;1.456;2023-06-19T07:08:47;21.85;83.24
65584;DHT22;70321;43.592;1.456;2023-06-19T07:11:13;21.89;83.32
65584;DHT22;70321;43.592;1.456;2023-06-19T07:13:39;21.89;83.33
65584;DHT22;70321;43.592;1.456;2023-06-19T07:16:07;21.92;83.32
65584;DHT22;70321;43.592;1.456;2023-06-19T07:18:32;21.89;83.41
65584;DHT22;70321;43.592;1.456;2023-06-19T07:21:00;21.82;83.59
65584;DHT22;70321;43.592;1.456;2023-06-19T07:23:26;21.86;83.54
65584;DHT22;70321;43.592;1.456;2023-06-19T07:25:52;21.79;84.61
65584;DHT22;70321;43.592;1.456;2023-06-19T07:28:17;21.78;84.86
65584;DHT22;70321;43.592;1.456;2023-06-19T07:30:43;21.75;84.86
65584;DHT22;70321;43.592;1.456;2023-06-19T07:33:09;21.75;85.10
65584;DHT22;70321;43.592;1.456;2023-06-19T07:35:35;21.67;85.19
65584;DHT22;70321;43.592;1.456;2023-06-19T07:38:00;21.63;85.58
65584;DHT22;70321;43.592;1.456;2023-06-19T07:40:25;21.67;85.82
65584;DHT22;70321;43.592;1.456;2023-06-19T07:42:51;21.69;85.62
65584;DHT22;70321;43.592;1.456;2023-06-19T07:45:16;21.69;85.94
65584;DHT22;70321;43.592;1.456;2023-06-19T07:47:42;21.72;86.20
65584;DHT22;70321;43.592;1.456;2023-06-19T07:50:07;21.79;86.22
65584;DHT22;70321;43.592;1.456;2023-06-19T07:52:33;21.86;86.44
65584;DHT22;70321;43.592;1.456;2023-06-19T07:54:59;21.96;86.38
65584;DHT22;70321;43.592;1.456;2023-06-19T07:57:25;22.06;86.30
65584;DHT22;70321;43.592;1.456;2023-06-19T07:59:53;22.13;86.32
65584;DHT22;70321;43.592;1.456;2023-06-19T08:02:19;22.21;86.42
65584;DHT22;70321;43.592;1.456;2023-06-19T08:04:45;22.27;86.16
65584;DHT22;70321;43.592;1.456;2023-06-19T08:07:11;22.33;85.97
65584;DHT22;70321;43.592;1.456;2023-06-19T08:09:36;22.36;85.96
65584;DHT22;70321;43.592;1.456;2023-06-19T08:12:02;22.40;85.92
65584;DHT22;70321;43.592;1.456;2023-06-19T08:14:28;22.50;85.58
65584;DHT22;70321;43.592;1.456;2023-06-19T08:16:54;22.55;84.95
65584;DHT22;70321;43.592;1.456;2023-06-19T08:19:19;22.61;84.46
65584;DHT22;70321;43.592;1.456;2023-06-19T08:21:45;22.61;84.17
65584;DHT22;70321;43.592;1.456;2023-06-19T08:24:10;22.61;84.77
65584;DHT22;70321;43.592;1.456;2023-06-19T08:26:36;22.65;85.05
65584;DHT22;70321;43.592;1.456;2023-06-19T08:29:01;22.69;85.23
65584;DHT22;70321;43.592;1.456;2023-06-19T08:31:26;22.71;84.96
65584;DHT22;70321;43.592;1.456;2023-06-19T08:33:54;22.75;84.45
65584;DHT22;70321;43.592;1.456;2023-06-19T08:36:20;22.72;84.15
65584;DHT22;70321;43.592;1.456;2023-06-19T08:38:45;22.69;83.94
65584;DHT22;70321;43.592;1.456;2023-06-19T08:41:17;22.63;84.56
65584;DHT22;70321;43.592;1.456;2023-06-19T08:43:44;22.63;84.59
65584;DHT22;70321;43.592;1.456;2023-06-19T08:46:12;22.64;84.71
65584;DHT22;70321;43.592;1.456;2023-06-19T08:48:38;22.63;84.75
65584;DHT22;70321;43.592;1.456;2023-06-19T08:51:04;22.65;84.50
65584;DHT22;70321;43.592;1.456;2023-06-19T08:53:35;22.65;84.51
65584;DHT22;70321;43.592;1.456;2023-06-19T08:56:02;22.68;84.43
65584;DHT22;70321;43.592;1.456;2023-06-19T08:58:27;22.71;84.25
65584;DHT22;70321;43.592;1.456;2023-06-19T09:00:53;22.72;84.23
65584;DHT22;70321;43.592;1.456;2023-06-19T09:03:22;22.77;84.35
65584;DHT22;70321;43.592;1.456;2023-06-19T09:05:48;22.77;84.46
65584;DHT22;70321;43.592;1.456;2023-06-19T09:08:20;22.72;84.37
65584;DHT22;70321;43.592;1.456;2023-06-19T09:11:03;22.71;84.53
65584;DHT22;70321;43.592;1.456;2023-06-19T09:13:31;22.64;84.51
65584;DHT22;70321;43.592;1.456;2023-06-19T09:16:07;22.64;84.48
65584;DHT22;70321;43.592;1.456;2023-06-19T09:18:58;22.61;84.42
65584;DHT22;70321;43.592;1.456;2023-06-19T09:21:24;22.61;84.85
65584;DHT22;70321;43.592;1.456;2023-06-19T09:23:50;22.57;84.96
65584;DHT22;70321;43.592;1.456;2023-06-19T09:26:18;22.55;85.03
65584;DHT22;70321;43.592;1.456;2023-06-19T09:28:45;22.58;85.04
65584;DHT22;70321;43.592;1.456;2023-06-19T09:31:11;22.51;84.52
65584;DHT22;70321;43.592;1.456;2023-06-19T09:33:38;22.48;84.94
65584;DHT22;70321;43.592;1.456;2023-06-19T09:36:05;22.48;85.23
65584;DHT22;70321;43.592;1.456;2023-06-19T09:38:33;22.50;85.74
65584;DHT22;70321;43.592;1.456;2023-06-19T09:41:03;22.50;85.70
65584;DHT22;70321;43.592;1.456;2023-06-19T09:43:40;22.53;85.39
65584;DHT22;70321;43.592;1.456;2023-06-19T09:46:09;22.51;85.02
65584;DHT22;70321;43.592;1.456;2023-06-19T09:48:35;22.55;84.95
65584;DHT22;70321;43.592;1.456;2023-06-19T09:51:29;22.57;84.38
65584;DHT22;70321;43.592;1.456;2023-06-19T09:53:56;22.60;84.81
65584;DHT22;70321;43.592;1.456;2023-06-19T09:56:24;22.71;84.36
65584;DHT22;70321;43.592;1.456;2023-06-19T09:58:54;22.74;84.34
65584;DHT22;70321;43.592;1.456;2023-06-19T10:01:20;22.81;84.11
65584;DHT22;70321;43.592;1.456;2023-06-19T10:03:45;22.88;84.24
65584;DHT22;70321;43.592;1.456;2023-06-19T10:06:15;22.95;83.79
65584;DHT22;70321;43.592;1.456;2023-06-19T10:08:42;22.97;82.60
65584;DHT22;70321;43.592;1.456;2023-06-19T10:11:08;23.02;83.30
65584;DHT22;70321;43.592;1.456;2023-06-19T10:13:36;23.05;83.10
65584;DHT22;70321;43.592;1.456;2023-06-19T10:16:04;23.04;81.91
65584;DHT22;70321;43.592;1.456;2023-06-19T10:18:31;22.97;81.64
65584;DHT22;70321;43.592;1.456;2023-06-19T10:20:57;22.94;81.19
65584;DHT22;70321;43.592;1.456;2023-06-19T10:23:24;22.94;81.28
65584;DHT22;70321;43.592;1.456;2023-06-19T10:28:38;22.95;81.46
65584;DHT22;70321;43.592;1.456;2023-06-19T10:31:07;23.01;82.00
65584;DHT22;70321;43.592;1.456;2023-06-19T10:33:34;23.05;80.75
65584;DHT22;70321;43.592;1.456;2023-06-19T10:36:17;23.02;80.59
65584;DHT22;70321;43.592;1.456;2023-06-19T10:38:43;23.01;80.37
65584;DHT22;70321;43.592;1.456;2023-06-19T10:41:18;23.04;80.79
65584;DHT22;70321;43.592;1.456;2023-06-19T10:44:04;23.02;79.90
65584;DHT22;70321;43.592;1.456;2023-06-19T10:46:35;23.05;79.82
65584;DHT22;70321;43.592;1.456;2023-06-19T10:49:01;23.08;80.04
65584;DHT22;70321;43.592;1.456;2023-06-19T10:51:27;23.15;80.54
65584;DHT22;70321;43.592;1.456;2023-06-19T10:53:54;23.11;82.86
65584;DHT22;70321;43.592;1.456;2023-06-19T10:56:21;22.95;84.23
65584;DHT22;70321;43.592;1.456;2023-06-19T10:58:47;22.78;83.73
65584;DHT22;70321;43.592;1.456;2023-06-19T11:01:12;22.75;83.54
65584;DHT22;70321;43.592;1.456;2023-06-19T11:03:38;22.83;83.34
65584;DHT22;70321;43.592;1.456;2023-06-19T11:06:03;22.90;83.43
65584;DHT22;70321;43.592;1.456;2023-06-19T11:08:29;22.99;83.63
65584;DHT22;70321;43.592;1.456;2023-06-19T11:10:55;23.05;82.96
65584;DHT22;70321;43.592;1.456;2023-06-19T11:13:21;23.20;82.80
65584;DHT22;70321;43.592;1.456;2023-06-19T11:15:49;23.28;82.92
65584;DHT22;70321;43.592;1.456;2023-06-19T11:18:16;23.37;82.52
65584;DHT22;70321;43.592;1.456;2023-06-19T11:20:52;23.41;81.56
65584;DHT22;70321;43.592;1.456;2023-06-19T11:23:28;23.39;80.92
65584;DHT22;70321;43.592;1.456;2023-06-19T11:25:54;23.39;80.91
65584;DHT22;70321;43.592;1.456;2023-06-19T11:28:21;23.39;80.68
65584;DHT22;70321;43.592;1.456;2023-06-19T11:30:57;23.41;80.50
65584;DHT22;70321;43.592;1.456;2023-06-19T11:33:23;23.38;79.82
65584;DHT22;70321;43.592;1.456;2023-06-19T11:35:49;23.38;80.17
65584;DHT22;70321;43.592;1.456;2023-06-19T11:38:19;23.41;78.51
65584;DHT22;70321;43.592;1.456;2023-06-19T11:40:46;23.37;78.83
65584;DHT22;70321;43.592;1.456;2023-06-19T11:43:12;23.29;78.67
65584;DHT22;70321;43.592;1.456;2023-06-19T11:45:48;23.32;78.54
65584;DHT22;70321;43.592;1.456;2023-06-19T11:48:21;23.30;78.81
65584;DHT22;70321;43.592;1.456;2023-06-19T11:50:46;23.26;78.84
65584;DHT22;70321;43.592;1.456;2023-06-19T11:53:12;23.29;79.23
65584;DHT22;70321;43.592;1.456;2023-06-19T11:55:38;23.30;79.23
65584;DHT22;70321;43.592;1.456;2023-06-19T11:58:04;23.35;79.36
65584;DHT22;70321;43.592;1.456;2023-06-19T12:00:29;23.38;79.10
65584;DHT22;70321;43.592;1.456;2023-06-19T12:02:55;23.39;79.38
65584;DHT22;70321;43.592;1.456;2023-06-19T12:05:22;23.32;79.35
65584;DHT22;70321;43.592;1.456;2023-06-19T12:07:47;23.33;79.35
65584;DHT22;70321;43.592;1.456;2023-06-19T12:10:13;23.30;79.50
65584;DHT22;70321;43.592;1.456;2023-06-19T12:12:38;23.37;79.42
65584;DHT22;70321;43.592;1.456;2023-06-19T12:15:04;23.33;79.77
65584;DHT22;70321;43.592;1.456;2023-06-19T12:17:30;23.39;79.95
65584;DHT22;70321;43.592;1.456;2023-06-19T12:19:56;23.28;79.87
65584;DHT22;70321;43.592;1.456;2023-06-19T12:22:22;23.30;79.22
65584;DHT22;70321;43.592;1.456;2023-06-19T12:24:47;23.28;79.79
65584;DHT22;70321;43.592;1.456;2023-06-19T12:27:12;23.30;80.13
65584;DHT22;70321;43.592;1.456;2023-06-19T12:29:38;23.33;80.10
65584;DHT22;70321;43.592;1.456;2023-06-19T12:32:03;23.30;80.56
65584;DHT22;70321;43.592;1.456;2023-06-19T12:34:29;23.37;80.52
65584;DHT22;70321;43.592;1.456;2023-06-19T12:36:54;23.33;80.67
65584;DHT22;70321;43.592;1.456;2023-06-19T12:39:22;23.33;81.07
65584;DHT22;70321;43.592;1.456;2023-06-19T12:41:48;23.37;80.70
65584;DHT22;70321;43.592;1.456;2023-06-19T12:44:13;23.35;81.65
65584;DHT22;70321;43.592;1.456;2023-06-19T12:46:38;23.38;81.99
65584;DHT22;70321;43.592;1.456;2023-06-19T12:49:05;23.37;81.74
65584;DHT22;70321;43.592;1.456;2023-06-19T12:51:30;23.32;82.21
65584;DHT22;70321;43.592;1.456;2023-06-19T12:53:55;23.30;82.11
65584;DHT22;70321;43.592;1.456;2023-06-19T12:56:21;23.29;82.21
65584;DHT22;70321;43.592;1.456;2023-06-19T12:58:46;23.32;81.96
65584;DHT22;70321;43.592;1.456;2023-06-19T13:01:12;23.25;82.14
65584;DHT22;70321;43.592;1.456;2023-06-19T13:03:37;23.23;82.53
65584;DHT22;70321;43.592;1.456;2023-06-19T13:06:03;23.23;82.76
65584;DHT22;70321;43.592;1.456;2023-06-19T13:08:28;23.22;83.22
65584;DHT22;70321;43.592;1.456;2023-06-19T13:10:54;23.25;82.96
65584;DHT22;70321;43.592;1.456;2023-06-19T13:13:19;23.23;83.07
65584;DHT22;70321;43.592;1.456;2023-06-19T13:15:44;23.25;82.78
65584;DHT22;70321;43.592;1.456;2023-06-19T13:18:10;23.22;82.77
65584;DHT22;70321;43.592;1.456;2023-06-19T13:20:35;23.22;82.84
65584;DHT22;70321;43.592;1.456;2023-06-19T13:23:01;23.23;82.71
65584;DHT22;70321;43.592;1.456;2023-06-19T13:25:27;23.25;83.17
65584;DHT22;70321;43.592;1.456;2023-06-19T13:27:52;23.18;82.94
65584;DHT22;70321;43.592;1.456;2023-06-19T13:30:18;23.16;82.91
65584;DHT22;70321;43.592;1.456;2023-06-19T13:32:43;23.15;82.58
65584;DHT22;70321;43.592;1.456;2023-06-19T13:35:08;23.15;82.46
65584;DHT22;70321;43.592;1.456;2023-06-19T13:37:35;23.12;82.85
65584;DHT22;70321;43.592;1.456;2023-06-19T13:40:01;23.08;82.88
65584;DHT22;70321;43.592;1.456;2023-06-19T13:42:29;23.11;82.94
65584;DHT22;70321;43.592;1.456;2023-06-19T13:44:55;23.07;82.94
65584;DHT22;70321;43.592;1.456;2023-06-19T13:47:20;23.02;82.82
65584;DHT22;70321;43.592;1.456;2023-06-19T13:49:46;23.01;83.11
65584;DHT22;70321;43.592;1.456;2023-06-19T13:52:11;23.04;83.12
65584;DHT22;70321;43.592;1.456;2023-06-19T13:54:37;23.04;82.81
65584;DHT22;70321;43.592;1.456;2023-06-19T13:57:03;23.02;82.89
65584;DHT22;70321;43.592;1.456;2023-06-19T13:59:29;22.99;82.55
65584;DHT22;70321;43.592;1.456;2023-06-19T14:01:55;23.01;82.78
65584;DHT22;70321;43.592;1.456;2023-06-19T14:04:20;22.99;82.98
65584;DHT22;70321;43.592;1.456;2023-06-19T14:06:45;23.01;83.05
65584;DHT22;70321;43.592;1.456;2023-06-19T14:09:12;23.05;83.39
65584;DHT22;70321;43.592;1.456;2023-06-19T14:11:37;23.08;83.37
65584;DHT22;70321;43.592;1.456;2023-06-19T14:14:03;23.09;83.29
65584;DHT22;70321;43.592;1.456;2023-06-19T14:16:28;23.12;83.40
65584;DHT22;70321;43.592;1.456;2023-06-19T14:18:53;23.18;83.66
65584;DHT22;70321;43.592;1.456;2023-06-19T14:21:19;23.20;83.35
65584;DHT22;70321;43.592;1.456;2023-06-19T14:23:44;23.26;83.32
65584;DHT22;70321;43.592;1.456;2023-06-19T14:26:10;23.30;83.61
65584;DHT22;70321;43.592;1.456;2023-06-19T14:28:37;23.38;83.41
65584;DHT22;70321;43.592;1.456;2023-06-19T14:31:03;23.42;83.22
65584;DHT22;70321;43.592;1.456;2023-06-19T14:33:29;23.48;83.47
65584;DHT22;70321;43.592;1.456;2023-06-19T14:35:55;23.50;82.12
65584;DHT22;70321;43.592;1.456;2023-06-19T14:38:20;23.56;82.50
65584;DHT22;70321;43.592;1.456;2023-06-19T14:40:46;23.55;81.61
65584;DHT22;70321;43.592;1.456;2023-06-19T14:43:11;23.53;79.86
65584;DHT22;70321;43.592;1.456;2023-06-19T14:45:37;23.50;79.43
65584;DHT22;70321;43.592;1.456;2023-06-19T14:48:04;23.49;78.92
65584;DHT22;70321;43.592;1.456;2023-06-19T14:50:30;23.46;78.78
65584;DHT22;70321;43.592;1.456;2023-06-19T14:52:56;23.45;78.13
65584;DHT22;70321;43.592;1.456;2023-06-19T14:55:21;23.43;78.31
65584;DHT22;70321;43.592;1.456;2023-06-19T14:57:46;23.43;78.43
65584;DHT22;70321;43.592;1.456;2023-06-19T15:00:12;23.45;77.38
65584;DHT22;70321;43.592;1.456;2023-06-19T15:02:38;23.49;77.53
65584;DHT22;70321;43.592;1.456;2023-06-19T15:05:04;23.48;76.93
65584;DHT22;70321;43.592;1.456;2023-06-19T15:07:29;23.50;75.94
65584;DHT22;70321;43.592;1.456;2023-06-19T15:09:55;23.55;76.59
65584;DHT22;70321;43.592;1.456;2023-06-19T15:12:20;23.58;75.76
65584;DHT22;70321;43.592;1.456;2023-06-19T15:14:45;23.58;75.52
65584;DHT22;70321;43.592;1.456;2023-06-19T15:17:11;23.56;75.21
65584;DHT22;70321;43.592;1.456;2023-06-19T15:19:36;23.58;74.90
65584;DHT22;70321;43.592;1.456;2023-06-19T15:22:02;23.60;74.70
65584;DHT22;70321;43.592;1.456;2023-06-19T15:24:27;23.65;75.05
65584;DHT22;70321;43.592;1.456;2023-06-19T15:26:53;23.73;74.73
65584;DHT22;70321;43.592;1.456;2023-06-19T15:29:18;23.86;74.40
65584;DHT22;70321;43.592;1.456;2023-06-19T15:31:43;23.90;73.85
65584;DHT22;70321;43.592;1.456;2023-06-19T15:34:09;24.00;74.25